Time;durP1;ratioP1;P1;durP2;ratioP2;P2;SDS_P1;SDS_P2;PMS_P1;PMS_P2;Temp;Humidity;BMP_temperature;BMP_pressure;BME280_temperature;BME280_humidity;BME280_pressure;Samples;Min_cycle;Max_cycle;Signal;HPM_P1;HPM_P2
2022/03/08 00:10:51;;;;;;;;;;;51.30;2227.20;;;;;;6268643;22;19914;-83
2022/03/08 05:05:00;;;;;;;;;;;26.20;2201.60;;;;;;6228203;22;19941;-83
2022/03/08 05:08:27;;;;;;;;;;;26.20;2201.60;;;;;;6265382;23;19912;-82
2022/03/08 05:11:01;;;;;;;;;;;26.20;2201.60;;;;;;6211285;23;19932;-83
2022/03/08 05:17:00;;;;;;;;;;;26.10;2201.60;;;;;;6213085;23;19923;-83
2022/03/08 05:19:49;;;;;;;;;;;26.10;2201.60;;;;;;6163965;23;19888;-82
2022/03/08 05:23:10;;;;;;;;;;;26.10;2201.60;;;;;;6094686;23;19906;-82
2022/03/08 08:30:55;;;;;;;;;;;230.60;1843.20;;;;;;6252343;22;19926;-91
2022/03/08 08:33:21;;;;;;;;;;;;;;;;;;6195555;23;20221;-89
2022/03/08 08:35:47;;;;;;;;;;;333.10;1484.80;;;;;;6222054;23;19899;-87
2022/03/08 08:38:13;;;;;;;;;;;384.30;1280.00;;;;;;6222067;23;20026;-88
2022/03/08 08:40:38;;;;;;;;;;;410.40;1177.60;;;;;;6222024;23;19991;-88
2022/03/08 08:43:05;;;;;;;;;;;;;;;;;;6221659;23;19899;-87
2022/03/08 08:45:31;;;;;;;;;;;486.50;1024.00;;;;;;6221700;23;19990;-88
2022/03/08 08:47:57;;;;;;;;;;;512.30;947.20;;;;;;6221672;23;19904;-86
2022/03/08 08:50:22;;;;;;;;;;;487.10;921.60;;;;;;6221621;23;20269;-85
2022/03/08 08:52:48;;;;;;;;;;;512.00;921.60;;;;;;6221615;23;19906;-86
2022/03/08 08:55:14;;;;;;;;;;;512.40;921.60;;;;;;6221670;23;19899;-86
2022/03/08 08:57:39;;;;;;;;;;;563.30;870.40;;;;;;6221621;23;19950;-85
2022/03/08 09:00:06;;;;;;;;;;;588.80;819.20;;;;;;6221614;23;19899;-86
2022/03/08 09:02:32;;;;;;;;;;;589.30;793.60;;;;;;6221432;23;19903;-86
2022/03/08 09:04:57;;;;;;;;;;;614.50;819.20;;;;;;6221221;23;19899;-87
2022/03/08 09:07:23;;;;;;;;;;;640.10;742.40;;;;;;6220055;23;20308;-87
2022/03/08 09:09:49;;;;;;;;;;;665.60;742.40;;;;;;6218774;23;19910;-87
2022/03/08 09:12:15;;;;;;;;;;;665.60;768.00;;;;;;6221415;23;19900;-87
2022/03/08 09:14:40;;;;;;;;;;;666.20;716.80;;;;;;6221146;23;19938;-89
2022/03/08 09:17:06;;;;;;;;;;;691.80;665.60;;;;;;6221274;23;19906;-87
2022/03/08 09:19:31;;;;;;;;;;;717.00;716.80;;;;;;6221165;23;19903;-87
2022/03/08 09:21:57;;;;;;;;;;;742.60;819.20;;;;;;6221232;23;19922;-90
2022/03/08 09:24:23;;;;;;;;;;;742.50;665.60;;;;;;6221320;23;19923;-86
2022/03/08 09:26:49;;;;;;;;;;;;;;;;;;6221193;23;19978;-87
2022/03/08 09:29:14;;;;;;;;;;;717.30;640.00;;;;;;6216621;23;19919;-88
2022/03/08 09:31:40;;;;;;;;;;;717.00;640.00;;;;;;6191298;23;19912;-87
2022/03/08 09:34:06;;;;;;;;;;;;;;;;;;6191184;23;19907;-89
2022/03/08 09:36:32;;;;;;;;;;;742.40;640.00;;;;;;6191312;23;20333;-86
2022/03/08 09:38:58;;;;;;;;;;;666.40;640.00;;;;;;6191066;23;19900;-86
2022/03/08 09:41:24;;;;;;;;;;;640.80;665.60;;;;;;6190139;23;19906;-89
2022/03/08 09:43:50;;;;;;;;;;;717.70;614.40;;;;;;6191392;23;19900;-89
2022/03/08 09:46:16;;;;;;;;;;;793.70;614.40;;;;;;6191423;23;19911;-88
2022/03/08 09:48:42;;;;;;;;;;;794.20;588.80;;;;;;6191140;23;19904;-88
2022/03/08 09:51:08;;;;;;;;;;;844.80;614.40;;;;;;6190770;23;19958;-89
2022/03/08 09:53:35;;;;;;;;;;;;;;;;;;6191147;23;19900;-89
2022/03/08 09:56:01;;;;;;;;;;;717.60;537.60;;;;;;6191143;23;19903;-91
2022/03/08 09:58:27;;;;;;;;;;;640.70;665.60;;;;;;6191105;23;19927;-89
2022/03/08 10:00:55;;;;;;;;;;;589.50;691.20;;;;;;6191046;23;19907;-89
2022/03/08 10:03:21;;;;;;;;;;;;;;;;;;6190850;23;19900;-87
2022/03/08 10:05:47;;;;;;;;;;;435.80;793.60;;;;;;6191019;23;19907;-89
2022/03/08 10:08:14;;;;;;;;;;;512.20;742.40;;;;;;6191172;23;19974;-88
2022/03/08 10:10:39;;;;;;;;;;;;;;;;;;6190720;23;19974;-89
2022/03/08 10:13:05;;;;;;;;;;;384.50;1305.60;;;;;;6190908;23;20318;-89
2022/03/08 10:15:31;;;;;;;;;;;512.00;819.20;;;;;;6190868;23;19982;-87
2022/03/08 10:17:56;;;;;;;;;;;640.50;640.00;;;;;;6190913;23;20313;-90
2022/03/08 10:20:30;;;;;;;;;;;589.20;768.00;;;;;;6190836;23;20328;-86
2022/03/08 10:22:56;;;;;;;;;;;538.30;716.80;;;;;;6190882;23;19899;-89
2022/03/08 10:25:24;;;;;;;;;;;461.50;793.60;;;;;;6190608;23;19926;-88
2022/03/08 10:27:50;;;;;;;;;;;487.00;768.00;;;;;;6191151;23;19983;-87
2022/03/08 10:30:15;;;;;;;;;;;614.80;665.60;;;;;;6232687;23;20305;-91
2022/03/08 10:32:41;;;;;;;;;;;691.70;588.80;;;;;;6220814;23;19903;-91
2022/03/08 10:35:08;;;;;;;;;;;768.50;537.60;;;;;;6220784;23;19900;-90
2022/03/08 10:37:38;;;;;;;;;;;794.50;537.60;;;;;;6220728;23;19900;-90
2022/03/08 10:40:04;;;;;;;;;;;819.40;512.00;;;;;;6221280;23;19919;-91
2022/03/08 10:42:32;;;;;;;;;;;768.60;537.60;;;;;;6220768;23;19925;-89
2022/03/08 10:45:09;;;;;;;;;;;666.40;588.80;;;;;;6220728;23;19900;-88
2022/03/08 10:47:39;;;;;;;;;;;589.00;691.20;;;;;;6220369;23;19900;-88
2022/03/08 10:50:05;;;;;;;;;;;;;;;;;;6220509;23;20378;-89
2022/03/08 10:52:31;;;;;;;;;;;;;;;;;;6221045;23;19905;-88
2022/03/08 10:54:57;;;;;;;;;;;;;;;;;;6222983;23;19928;-88
2022/03/08 10:57:23;;;;;;;;;;;;;;;;;;6222873;23;19899;-88
2022/03/08 10:59:49;;;;;;;;;;;;;;;;;;6222946;23;19899;-88
2022/03/08 11:02:22;;;;;;;;;;;333.20;1049.60;;;;;;6222998;23;19900;-89
2022/03/08 11:04:48;;;;;;;;;;;;;;;;;;6222933;23;19907;-90
2022/03/08 11:07:13;;;;;;;;;;;307.70;1075.20;;;;;;6222717;23;19932;-90
2022/03/08 11:09:40;;;;;;;;;;;307.70;1075.20;;;;;;6222604;23;19904;-90
2022/03/08 11:12:05;;;;;;;;;;;307.40;1100.80;;;;;;6222991;23;19978;-91
2022/03/08 11:14:31;;;;;;;;;;;307.40;1126.40;;;;;;6222651;23;20235;-91
2022/03/08 11:16:57;;;;;;;;;;;282.10;1561.60;;;;;;6220882;23;19900;-91
2022/03/08 11:19:26;;;;;;;;;;;281.90;1177.60;;;;;;6221521;23;19906;-91
2022/03/08 11:21:51;;;;;;;;;;;281.80;1228.80;;;;;;6222204;23;19993;-93
2022/03/08 11:24:18;;;;;;;;;;;281.90;1228.80;;;;;;6221972;23;19904;-93
2022/03/08 11:26:44;;;;;;;;;;;282.00;1177.60;;;;;;6249258;23;19904;-92
2022/03/08 11:29:11;;;;;;;;;;;282.30;1152.00;;;;;;6221832;23;20002;-90
2022/03/08 11:31:38;;;;;;;;;;;307.20;1203.20;;;;;;6222088;23;19943;-90
2022/03/08 11:34:26;;;;;;;;;;;282.50;1177.60;;;;;;6222171;23;19903;-92
2022/03/08 11:36:58;;;;;;;;;;;307.20;1177.60;;;;;;6222600;23;19926;-92
2022/03/08 11:39:28;;;;;;;;;;;307.30;1126.40;;;;;;6249182;23;19982;-88
2022/03/08 11:42:20;;;;;;;;;;;308.10;1075.20;;;;;;6222722;23;20340;-91
2022/03/08 11:44:57;;;;;;;;;;;307.90;1126.40;;;;;;6241703;23;19900;-90
2022/03/08 11:47:34;;;;;;;;;;;307.50;1152.00;;;;;;6222881;23;19907;-89
2022/03/08 11:50:00;;;;;;;;;;;;;;;;;;6222650;23;19958;-91
2022/03/08 11:52:36;;;;;;;;;;;281.60;1203.20;;;;;;6222730;23;19903;-90
2022/03/08 11:55:10;;;;;;;;;;;281.60;1203.20;;;;;;6222505;23;19904;-91
2022/03/08 11:57:41;;;;;;;;;;;281.80;1203.20;;;;;;6222663;23;19900;-89
2022/03/08 12:00:25;;;;;;;;;;;281.70;1228.80;;;;;;6222672;23;19899;-91
2022/03/08 12:02:53;;;;;;;;;;;281.60;1228.80;;;;;;6222555;23;20003;-88
2022/03/08 12:05:38;;;;;;;;;;;256.80;1177.60;;;;;;6221657;23;19899;-90
2022/03/08 12:08:22;;;;;;;;;;;256.80;1203.20;;;;;;6222530;23;19945;-90
2022/03/08 12:10:48;;;;;;;;;;;256.70;1177.60;;;;;;6222720;23;19907;-90
2022/03/08 12:13:15;;;;;;;;;;;256.90;1177.60;;;;;;6221672;23;19900;-91
2022/03/08 12:16:06;;;;;;;;;;;256.90;1177.60;;;;;;6222490;23;19946;-91
2022/03/08 12:18:33;;;;;;;;;;;281.70;1203.20;;;;;;6240239;23;19935;-92
2022/03/08 12:21:14;;;;;;;;;;;281.90;1203.20;;;;;;6222283;23;19900;-91
2022/03/08 12:24:00;;;;;;;;;;;282.10;1203.20;;;;;;6222204;23;19906;-91
2022/03/08 12:26:28;;;;;;;;;;;282.20;1152.00;;;;;;6222229;23;19900;-91
2022/03/08 12:29:05;;;;;;;;;;;282.40;1126.40;;;;;;6222312;23;19900;-92
2022/03/08 12:31:32;;;;;;;;;;;307.30;1152.00;;;;;;6222104;23;20311;-89
2022/03/08 12:34:02;;;;;;;;;;;281.80;1254.40;;;;;;6222400;23;19904;-93
2022/03/08 12:36:27;;;;;;;;;;;256.40;1203.20;;;;;;6222103;23;20305;-93
2022/03/08 12:38:53;;;;;;;;;;;231.20;1254.40;;;;;;6222061;23;19899;-93
2022/03/08 12:41:25;;;;;;;;;;;230.80;1280.00;;;;;;6222227;23;20330;-89
2022/03/08 12:43:58;;;;;;;;;;;230.60;1331.20;;;;;;6222008;23;19899;-92
2022/03/08 12:46:23;;;;;;;;;;;230.50;1331.20;;;;;;6222179;23;19986;-91
2022/03/08 12:48:52;;;;;;;;;;;230.40;1331.20;;;;;;6222588;23;20301;-91
2022/03/08 12:51:20;;;;;;;;;;;230.50;1331.20;;;;;;6222274;23;19907;-91
2022/03/08 12:53:49;;;;;;;;;;;230.80;1331.20;;;;;;6222351;23;19903;-93
2022/03/08 12:56:17;;;;;;;;;;;231.00;1331.20;;;;;;6222222;23;19906;-94
2022/03/08 12:58:43;;;;;;;;;;;231.10;1305.60;;;;;;6223700;23;19954;-92
2022/03/08 13:01:09;;;;;;;;;;;231.10;1280.00;;;;;;6222947;23;19900;-91
2022/03/08 13:03:36;;;;;;;;;;;256.00;1254.40;;;;;;6224914;23;19906;-96
2022/03/08 13:06:07;;;;;;;;;;;256.30;1228.80;;;;;;6222536;23;19907;-92
2022/03/08 13:08:33;;;;;;;;;;;;;;;;;;6222084;23;20224;-92
2022/03/08 13:11:04;;;;;;;;;;;256.90;1177.60;;;;;;6221831;23;19939;-91
2022/03/08 13:13:30;;;;;;;;;;;;;;;;;;6221784;23;19934;-90
2022/03/08 13:15:55;;;;;;;;;;;282.50;1152.00;;;;;;6221857;23;19900;-91
2022/03/08 13:18:22;;;;;;;;;;;282.30;1152.00;;;;;;6222092;23;19984;-89
2022/03/08 13:20:48;;;;;;;;;;;281.90;1177.60;;;;;;6222181;23;19899;-92
2022/03/08 13:23:17;;;;;;;;;;;256.80;1177.60;;;;;;6222017;23;20309;-91
2022/03/08 13:25:44;;;;;;;;;;;256.30;1177.60;;;;;;6222212;23;19950;-91
2022/03/08 13:28:11;;;;;;;;;;;231.20;1228.80;;;;;;6221982;23;19907;-91
2022/03/08 13:30:44;;;;;;;;;;;230.90;1177.60;;;;;;6221621;23;19946;-90
2022/03/08 13:33:10;;;;;;;;;;;230.70;1177.60;;;;;;6221669;23;19900;-91
2022/03/08 13:35:36;;;;;;;;;;;230.60;1177.60;;;;;;6222614;23;19922;-91
2022/03/08 13:38:02;;;;;;;;;;;230.60;1228.80;;;;;;6221873;23;19910;-91
2022/03/08 13:40:29;;;;;;;;;;;230.40;1228.80;;;;;;6222109;23;19938;-93
2022/03/08 13:42:57;;;;;;;;;;;230.50;1280.00;;;;;;6221713;23;19906;-92
2022/03/08 13:45:24;;;;;;;;;;;230.50;1254.40;;;;;;6221675;23;19900;-92
2022/03/08 13:47:52;;;;;;;;;;;230.70;1254.40;;;;;;6221603;23;20313;-90
2022/03/08 13:50:19;;;;;;;;;;;282.50;1126.40;;;;;;6221487;23;19910;-91
2022/03/08 13:52:50;;;;;;;;;;;282.10;1126.40;;;;;;6248136;23;19899;-91
2022/03/08 13:55:15;;;;;;;;;;;281.90;1152.00;;;;;;6221605;23;19900;-92
2022/03/08 13:57:58;;;;;;;;;;;281.70;1177.60;;;;;;6221653;23;20031;-90
2022/03/08 14:00:42;;;;;;;;;;;256.90;1152.00;;;;;;6221494;23;19899;-90
2022/03/08 14:03:09;;;;;;;;;;;256.50;1177.60;;;;;;6222833;23;19899;-89
2022/03/08 14:05:47;;;;;;;;;;;256.30;1203.20;;;;;;6221683;23;19899;-89
2022/03/08 14:08:21;;;;;;;;;;;256.10;1228.80;;;;;;6221336;23;19900;-92
2022/03/08 14:10:51;;;;;;;;;;;256.00;1228.80;;;;;;6221642;23;19903;-91
2022/03/08 14:13:17;;;;;;;;;;;;;;;;;;6222317;23;19911;-93
2022/03/08 14:16:15;;;;;;;;;;;307.20;1126.40;;;;;;6221435;23;19900;-90
2022/03/08 14:18:47;;;;;;;;;;;282.10;1152.00;;;;;;6097762;23;19901;-91
2022/03/08 14:21:23;;;;;;;;;;;281.90;1177.60;;;;;;6073208;23;20212;-91
2022/03/08 14:23:48;;;;;;;;;;;282.30;1177.60;;;;;;6073015;23;19901;-93
2022/03/08 14:26:15;;;;;;;;;;;282.30;1177.60;;;;;;6072823;23;19908;-91
2022/03/08 14:28:45;;;;;;;;;;;281.80;1126.40;;;;;;6072529;23;19976;-92
2022/03/08 14:31:21;;;;;;;;;;;256.80;1126.40;;;;;;6072560;23;19985;-91
2022/03/08 14:33:54;;;;;;;;;;;256.60;1152.00;;;;;;6074328;23;19901;-91
2022/03/08 14:36:34;;;;;;;;;;;256.40;1177.60;;;;;;6073167;23;20323;-93
2022/03/08 14:39:01;;;;;;;;;;;256.40;1203.20;;;;;;6072345;23;19901;-90
2022/03/08 14:41:27;;;;;;;;;;;256.40;1177.60;;;;;;6073283;23;20414;-92
2022/03/08 14:43:53;;;;;;;;;;;256.40;1177.60;;;;;;6073778;23;20403;-89
2022/03/08 14:46:19;;;;;;;;;;;256.60;1177.60;;;;;;6097006;23;19928;-91
2022/03/08 14:48:45;;;;;;;;;;;256.70;1152.00;;;;;;6073010;23;20350;-90
2022/03/08 14:51:11;;;;;;;;;;;256.70;1152.00;;;;;;6072666;23;19913;-90
2022/03/08 14:53:37;;;;;;;;;;;256.50;1177.60;;;;;;6109019;23;19900;-90
2022/03/08 14:56:03;;;;;;;;;;;256.50;1177.60;;;;;;6221177;23;20305;-90
2022/03/08 14:58:28;;;;;;;;;;;256.50;1152.00;;;;;;6221118;23;19939;-89
2022/03/08 15:00:54;;;;;;;;;;;256.10;1100.80;;;;;;6222397;23;19900;-89
2022/03/08 15:03:20;;;;;;;;;;;231.30;1075.20;;;;;;6220400;23;20305;-90
2022/03/08 15:05:45;;;;;;;;;;;231.10;1100.80;;;;;;6220297;23;19935;-92
2022/03/08 15:08:11;;;;;;;;;;;230.80;1126.40;;;;;;6221023;23;19899;-93
2022/03/08 15:10:41;;;;;;;;;;;230.70;1126.40;;;;;;6221296;23;19986;-94
2022/03/08 15:13:07;;;;;;;;;;;230.70;1152.00;;;;;;6219745;23;19900;-90
2022/03/08 15:15:32;;;;;;;;;;;230.60;1126.40;;;;;;6221354;23;19907;-96
2022/03/08 15:17:58;;;;;;;;;;;230.60;1177.60;;;;;;6222175;23;19899;-93
2022/03/08 15:20:23;;;;;;;;;;;230.60;1177.60;;;;;;6222376;23;19906;-93
2022/03/08 15:22:49;;;;;;;;;;;230.50;1382.40;;;;;;6221141;23;19974;-93
2022/03/08 15:25:15;;;;;;;;;;;230.50;1152.00;;;;;;6221138;23;20333;-92
2022/03/08 15:27:41;;;;;;;;;;;;;;;;;;6221403;23;19978;-89
2022/03/08 15:30:07;;;;;;;;;;;;;;;;;;6205738;23;19912;-90
2022/03/08 15:32:34;;;;;;;;;;;205.70;1100.80;;;;;;6191043;23;20334;-92
2022/03/08 15:35:00;;;;;;;;;;;205.60;1126.40;;;;;;6190572;23;19900;-91
2022/03/08 15:37:26;;;;;;;;;;;205.60;1126.40;;;;;;6189823;23;19907;-92
2022/03/08 15:39:52;;;;;;;;;;;205.50;1152.00;;;;;;6190985;23;19950;-92
2022/03/08 15:42:18;;;;;;;;;;;205.50;1177.60;;;;;;6191939;23;19962;-94
2022/03/08 15:44:43;;;;;;;;;;;205.40;1152.00;;;;;;6191529;23;19931;-92
2022/03/08 15:47:10;;;;;;;;;;;205.40;1152.00;;;;;;6191417;23;19942;-92
2022/03/08 15:49:36;;;;;;;;;;;205.30;1177.60;;;;;;6191608;23;19903;-92
2022/03/08 15:52:02;;;;;;;;;;;205.20;1203.20;;;;;;6192416;23;19964;-92
2022/03/08 15:54:28;;;;;;;;;;;205.20;1203.20;;;;;;6192698;23;19904;-93
2022/03/08 15:56:53;;;;;;;;;;;205.20;1203.20;;;;;;6193067;23;20280;-93
2022/03/08 15:59:19;;;;;;;;;;;205.10;1203.20;;;;;;6193240;23;19915;-92
2022/03/08 16:01:45;;;;;;;;;;;205.00;1203.20;;;;;;6193059;23;20359;-93
2022/03/08 16:04:10;;;;;;;;;;;205.00;1203.20;;;;;;6192718;23;19900;-93
2022/03/08 16:06:37;;;;;;;;;;;204.90;1228.80;;;;;;6192301;23;19900;-93
2022/03/08 16:09:03;;;;;;;;;;;204.90;1228.80;;;;;;6192315;23;19907;-92
2022/03/08 16:11:29;;;;;;;;;;;204.90;1228.80;;;;;;6192256;23;19907;-93
2022/03/08 16:13:54;;;;;;;;;;;204.80;1228.80;;;;;;6192351;23;19904;-92
2022/03/08 16:16:21;;;;;;;;;;;180.10;1228.80;;;;;;6191937;23;19946;-92
2022/03/08 16:18:47;;;;;;;;;;;180.10;1254.40;;;;;;6192420;23;19904;-92
2022/03/08 16:21:15;;;;;;;;;;;180.00;1280.00;;;;;;6192306;23;19946;-92
2022/03/08 16:23:41;;;;;;;;;;;180.00;1280.00;;;;;;6192138;23;19923;-92
2022/03/08 16:26:07;;;;;;;;;;;179.90;1280.00;;;;;;6192308;23;19900;-93
2022/03/08 16:28:32;;;;;;;;;;;179.80;1280.00;;;;;;6192484;23;19978;-92
2022/03/08 16:30:58;;;;;;;;;;;179.80;1305.60;;;;;;6217806;23;19934;-93
2022/03/08 16:33:24;;;;;;;;;;;179.70;1305.60;;;;;;6222408;23;19938;-91
2022/03/08 16:35:49;;;;;;;;;;;179.60;1280.00;;;;;;6222269;23;19907;-92
2022/03/08 16:38:15;;;;;;;;;;;179.60;1280.00;;;;;;6222353;23;20313;-91
2022/03/08 16:40:41;;;;;;;;;;;179.60;1280.00;;;;;;6222282;23;19938;-91
2022/03/08 16:43:08;;;;;;;;;;;179.50;1280.00;;;;;;6222247;23;19899;-90
2022/03/08 16:45:34;;;;;;;;;;;179.50;1305.60;;;;;;6222178;23;19994;-89
2022/03/08 16:48:00;;;;;;;;;;;179.40;1305.60;;;;;;6222044;23;19900;-91
2022/03/08 16:50:26;;;;;;;;;;;179.40;1305.60;;;;;;6221591;23;19953;-91
2022/03/08 16:52:52;;;;;;;;;;;179.30;1331.20;;;;;;6222031;23;19938;-92
2022/03/08 16:55:18;;;;;;;;;;;179.30;1331.20;;;;;;6221904;23;20272;-92
2022/03/08 16:57:43;;;;;;;;;;;179.20;1331.20;;;;;;6221976;23;19934;-92
2022/03/08 17:00:10;;;;;;;;;;;179.20;1331.20;;;;;;6222107;23;19899;-92
2022/03/08 17:02:36;;;;;;;;;;;154.50;1356.80;;;;;;6222000;23;20336;-92
2022/03/08 17:05:03;;;;;;;;;;;154.40;1356.80;;;;;;6221799;23;20375;-91
2022/03/08 17:07:29;;;;;;;;;;;154.40;1356.80;;;;;;6221409;23;19906;-93
2022/03/08 17:09:55;;;;;;;;;;;154.30;1356.80;;;;;;6222108;23;19900;-92
2022/03/08 17:12:21;;;;;;;;;;;154.30;1382.40;;;;;;6221420;23;19961;-92
2022/03/08 17:14:47;;;;;;;;;;;154.20;1382.40;;;;;;6220652;23;19900;-92
2022/03/08 17:17:13;;;;;;;;;;;154.00;1382.40;;;;;;6220488;23;19900;-89
2022/03/08 17:19:38;;;;;;;;;;;154.00;1408.00;;;;;;6220698;23;19908;-91
2022/03/08 17:22:04;;;;;;;;;;;153.90;1408.00;;;;;;6220221;23;19906;-92
2022/03/08 17:24:30;;;;;;;;;;;153.90;1408.00;;;;;;6220539;23;19900;-92
2022/03/08 17:26:55;;;;;;;;;;;153.80;1433.60;;;;;;6220455;23;19900;-91
2022/03/08 17:29:21;;;;;;;;;;;153.80;1433.60;;;;;;6214453;23;19918;-93
2022/03/08 17:31:46;;;;;;;;;;;153.80;1459.20;;;;;;6190274;23;19994;-92
2022/03/08 17:34:12;;;;;;;;;;;153.80;1433.60;;;;;;6190182;23;19942;-91
2022/03/08 17:39:25;;;;;;;;;;;153.80;1433.60;;;;;;6246376;22;19939;-91
2022/03/08 17:41:55;;;;;;;;;;;153.90;1459.20;;;;;;6220315;23;19907;-90
2022/03/08 17:44:21;;;;;;;;;;;153.70;1459.20;;;;;;6219946;23;20254;-91
2022/03/08 17:57:55;;;;;;;;;;;153.90;1459.20;;;;;;6213720;22;19922;-92
2022/03/08 18:03:06;;;;;;;;;;;153.70;1459.20;;;;;;6217113;23;19958;-91
2022/03/08 18:14:06;;;;;;;;;;;153.80;1510.40;;;;;;6246077;22;19915;-87
2022/03/08 18:16:32;;;;;;;;;;;153.70;1484.80;;;;;;6246989;23;19903;-92
2022/03/08 18:18:58;;;;;;;;;;;153.60;1510.40;;;;;;6220600;23;19922;-89
2022/03/08 22:13:39;;;;;;;;;;;51.70;1843.20;;;;;;6233745;22;19927;-83
2022/03/08 22:16:09;;;;;;;;;;;51.70;1817.60;;;;;;6247682;23;19915;-83
2022/03/08 23:34:38;;;;;;;;;;;26.30;1868.80;;;;;;6254562;22;19923;-83
2022/03/08 23:37:04;;;;;;;;;;;26.30;1894.40;;;;;;6233144;23;19927;-82
2022/03/08 23:39:30;;;;;;;;;;;51.80;1894.40;;;;;;6235365;23;19986;-82
2022/03/08 23:41:56;;;;;;;;;;;26.20;1945.60;;;;;;6233264;23;19906;-83
2022/03/08 23:44:22;;;;;;;;;;;26.30;1945.60;;;;;;6234313;23;19938;-84
2022/03/08 23:46:48;;;;;;;;;;;26.20;1920.00;;;;;;6259732;23;19899;-83
2022/03/08 23:49:18;;;;;;;;;;;26.30;1920.00;;;;;;6233282;23;19899;-83
2022/03/08 23:51:48;;;;;;;;;;;26.30;1894.40;;;;;;6261541;23;19915;-83
2022/03/08 23:54:16;;;;;;;;;;;26.30;1894.40;;;;;;6260096;23;19954;-83
2022/03/08 23:56:41;;;;;;;;;;;26.30;1920.00;;;;;;6235383;23;19899;-82
2022/03/08 23:59:10;;;;;;;;;;;26.20;1920.00;;;;;;6234354;23;19907;-82
